Aérodrome :
LOGIN :

S'inscrire | Disclaimer

   EN    FR    IT 

 










Légende :    VFR   VFR Marginal   IFR   IFR Intensif   IFR Très Intensif
Visi : 
Plafond : 
>= 8 km
>= 3000ft
5 à 8 km
1000 à 3000 ft
1500m à 5 km
500 à 1000 ft
800 à 1500m
200 à 500 ft
< 800m
< 200 ft
Symboles :   Orages  Brouillard  Fortes neiges  Fortes précipitations  Vent > 20 kt
SIGMETs :   Divers  Orages  Givrage  Turbulence  Onde Orograph.  Cendres Volcan.







- Altitude de l'aérodrome : 1306 ft
- Code IATA : ACH


LSZR - Alten Rhein

DERNIER METAR :
  • 230820Z 28009KT CAVOK 28/17 Q1018 NOSIG RMK F

METARs EXPIRÉS :
  • 230750Z 25006KT 200V300 CAVOK 28/17 Q1017 NOSIG RMK E
  • 230720Z 35004KT 260V040 CAVOK 28/18 Q1017 NOSIG RMK D
  • 230650Z VRB02KT CAVOK 28/19 Q1017 NOSIG RMK D
  • 230620Z VRB03KT CAVOK 27/18 Q1017 NOSIG RMK C
  • 230550Z AUTO 01004KT CAVOK 26/19 Q1017

TAF TAF LSZR
Valide du 23 à 09h jusqu'au 23 à 18h UTC


230825Z 2309/2318 28008KT 9999 SCT080
PROB40 2312/2318 SCT080TCU
PROB30
TEMPO 2314/2317 SHRA
ATIS : +41 71 858 51 66
Pas de NOTAMs connus pour ce terrain.



MET'MAP, la Météo Aéronautique d'un coup d'oeil ! - Copyright ORBIFLY Décembre 2007 - Disclaimer

ORBIFLY MET'MAP TEAM :

Programmation & Développement : Alexandra Zaïnal
Conception & Développement : Baudouin d'Aumeries
Co-Programmation & Développement : Marc-Olivier Méhu
Soutien technique & logistique : Manuel Goepfert

Contact : metmap@orbifly.com




SOURCES & CREDITS :

   NOAA